Weather reports worldwide

Advertisment
Chamonix, France (7469): temperature & dewpoint: 19.09.2018 23:00:00 - 25.09.2018 23:00:00 (CEST)Chamonix, France (7469): wind speed & gusts: 19.09.2018 23:00:00 - 25.09.2018 23:00:00 (CEST)Chamonix, France (7469): wind direction: 19.09.2018 23:00:00 - 25.09.2018 23:00:00 (CEST)Chamonix, France (7469): precipitation: 19.09.2018 23:00:00 - 25.09.2018 23:00:00 (CEST)
Date & Time tt [°C] td [°C] ff [km/h] ff [kn] fx [km/h] fx [kn] dd rr [mm]
25.09.2018 23:00:00 5,8 5,2 0 0 4 2 N 0,0
25.09.2018 22:00:00 6,6 5,9 0 0 2 1 N 0,0
25.09.2018 21:00:00 7,5 6,4 0 0 4 2 N 0,0
25.09.2018 20:00:00 9,0 7,3 0 0 8 4 N -
25.09.2018 19:00:00 11,4 7,9 0 0 11 6 N 0,0
25.09.2018 18:00:00 16,9 7,3 5 3 18 10 WSW 0,0
25.09.2018 17:00:00 17,6 7,0 8 4 18 10 SW 0,0
25.09.2018 16:00:00 17,0 8,2 5 3 18 10 SW 0,0
25.09.2018 15:00:00 16,6 7,8 8 4 18 10 WSW 0,0
25.09.2018 14:00:00 15,9 6,9 5 3 15 8 SW -
25.09.2018 13:00:00 13,6 7,1 5 3 15 8 SSW 0,0
25.09.2018 12:00:00 10,8 6,7 2 1 8 4 SW 0,0
25.09.2018 11:00:00 7,9 6,8 0 0 8 4 N 0,0
25.09.2018 10:00:00 6,7 6,6 0 0 2 1 N 0,0
25.09.2018 09:00:00 5,5 5,4 0 0 4 2 N 0,0
25.09.2018 08:00:00 4,3 4,2 0 0 2 1 N -
25.09.2018 07:00:00 3,6 3,3 2 1 4 2 NNE 0,0
25.09.2018 06:00:00 3,7 3,4 0 0 5 3 N 0,0
25.09.2018 05:00:00 3,8 3,5 0 0 4 2 N 0,0
25.09.2018 04:00:00 3,3 3,0 0 0 4 2 N 0,0
25.09.2018 03:00:00 3,6 3,2 0 0 4 2 N 0,0
25.09.2018 02:00:00 4,3 3,9 0 0 4 2 N -
25.09.2018 01:00:00 4,4 4,0 0 0 5 3 N 0,0
25.09.2018 00:00:00 5,0 4,4 0 0 5 3 N 0,0
24.09.2018 23:00:00 5,7 5,0 0 0 5 3 N 0,0
24.09.2018 22:00:00 6,3 5,3 0 0 4 2 N 0,0
24.09.2018 21:00:00 7,6 5,6 0 0 9 5 N 0,0
24.09.2018 20:00:00 9,1 6,0 0 0 9 5 N -
24.09.2018 19:00:00 11,1 5,6 0 0 15 8 N 0,0
24.09.2018 18:00:00 13,0 7,4 2 1 15 8 SSW 0,0
24.09.2018 17:00:00 14,3 7,6 4 2 21 11 SSW 0,0
24.09.2018 16:00:00 15,7 8,2 5 3 22 12 SW 0,0
24.09.2018 15:00:00 15,6 7,4 5 3 18 10 SSW 0,0
24.09.2018 14:00:00 15,1 8,6 8 4 28 15 SSW -
24.09.2018 13:00:00 13,8 8,4 5 3 22 12 SSW 0,0
24.09.2018 12:00:00 12,1 8,6 5 3 18 10 SW 0,0
24.09.2018 11:00:00 10,7 8,8 4 2 16 9 S 0,0
24.09.2018 10:00:00 9,8 8,1 4 2 11 6 NW 0,0
24.09.2018 09:00:00 9,3 8,5 2 1 13 7 SSW 0,0
24.09.2018 08:00:00 9,3 8,5 4 2 11 6 WSW -
24.09.2018 07:00:00 9,8 9,2 2 1 13 7 S 0,0
24.09.2018 06:00:00 10,2 9,4 0 0 11 6 N 0,0
24.09.2018 05:00:00 10,7 10,1 4 2 18 10 S 0,0
24.09.2018 04:00:00 11,4 10,6 4 2 22 12 S 1,0
24.09.2018 03:00:00 12,4 11,6 4 2 31 17 S 3,0
24.09.2018 02:00:00 13,7 12,6 5 3 26 14 SSW -
24.09.2018 01:00:00 14,8 14,3 4 2 13 7 S 2,0
24.09.2018 00:00:00 15,3 14,7 0 0 9 5 N 0,2
23.09.2018 23:00:00 15,6 15,1 0 0 8 4 N 1,0
23.09.2018 22:00:00 15,7 15,1 0 0 5 3 N 4,0
23.09.2018 21:00:00 16,3 14,8 2 1 28 15 SSE 7,0
23.09.2018 20:00:00 20,3 12,5 5 3 15 8 SSW -
23.09.2018 19:00:00 20,5 13,0 5 3 21 11 S 0,0
23.09.2018 18:00:00 22,8 13,0 5 3 26 14 SSW 0,0
23.09.2018 17:00:00 23,9 11,9 4 2 21 11 W 0,0
23.09.2018 16:00:00 27,5 14,2 4 2 22 12 SSW 0,0
23.09.2018 15:00:00 23,3 16,3 0 0 11 6 N 0,0
23.09.2018 14:00:00 25,7 12,2 8 4 16 9 SW -
23.09.2018 13:00:00 24,1 12,7 4 2 18 10 WSW 0,0
23.09.2018 12:00:00 18,7 12,4 2 1 8 4 SSE 0,0
23.09.2018 11:00:00 12,8 12,5 0 0 5 3 N 0,0
23.09.2018 10:00:00 9,5 9,2 0 0 2 1 N 0,0
23.09.2018 09:00:00 9,2 8,7 0 0 5 3 N 0,0
23.09.2018 08:00:00 9,3 8,7 0 0 5 3 N -
23.09.2018 07:00:00 10,1 9,5 0 0 5 3 N 0,0
23.09.2018 06:00:00 10,6 9,8 0 0 5 3 N 0,0
23.09.2018 05:00:00 11,5 10,6 0 0 5 3 N 0,0
23.09.2018 04:00:00 12,5 11,4 0 0 8 4 N 0,0
23.09.2018 03:00:00 12,6 11,7 0 0 4 2 N 0,0
23.09.2018 02:00:00 12,7 11,8 0 0 4 2 N -
23.09.2018 01:00:00 12,8 11,7 0 0 4 2 N 0,0
23.09.2018 00:00:00 13,1 11,8 0 0 5 3 N 0,0
22.09.2018 23:00:00 13,4 11,8 0 0 8 4 N 0,0
22.09.2018 22:00:00 13,8 11,7 4 2 8 4 N 0,0
22.09.2018 21:00:00 13,9 12,1 0 0 8 4 N 0,0
22.09.2018 20:00:00 14,3 12,2 2 1 8 4 ENE -
22.09.2018 19:00:00 15,8 12,7 0 0 8 4 N 0,0
22.09.2018 18:00:00 16,8 13,5 0 0 4 2 N 0,0
22.09.2018 17:00:00 18,3 11,4 0 0 11 6 N 0,0
22.09.2018 16:00:00 18,7 10,5 8 4 18 10 WSW 0,0
22.09.2018 15:00:00 19,7 10,9 8 4 18 10 SW 0,0
22.09.2018 14:00:00 19,6 11,4 4 2 11 6 SSW -
22.09.2018 13:00:00 17,6 12,1 4 2 11 6 S 0,0
22.09.2018 12:00:00 14,3 10,9 2 1 9 5 E 0,0
22.09.2018 11:00:00 11,9 11,0 4 2 11 6 WSW 0,0
22.09.2018 10:00:00 10,1 9,8 5 3 9 5 W 0,0
22.09.2018 09:00:00 9,6 9,3 2 1 9 5 SSE 0,0
22.09.2018 08:00:00 9,6 9,3 4 2 16 9 SW -
22.09.2018 07:00:00 10,4 10,1 4 2 15 8 SW 0,0
22.09.2018 06:00:00 11,3 10,8 4 2 18 10 S 0,0
22.09.2018 05:00:00 12,3 12,0 2 1 9 5 SSW 0,0
22.09.2018 04:00:00 12,6 12,3 0 0 8 4 N 0,0
22.09.2018 03:00:00 12,6 12,3 0 0 9 5 N 0,0
22.09.2018 02:00:00 13,1 12,8 0 0 9 5 N -
22.09.2018 01:00:00 13,5 13,2 0 0 5 3 N 0,0
22.09.2018 00:00:00 13,3 13,0 0 0 4 2 N 0,2
21.09.2018 23:00:00 13,3 13,0 0 0 4 2 N 0,2
21.09.2018 22:00:00 13,2 12,7 2 1 5 3 E 1,0
21.09.2018 21:00:00 13,3 12,7 0 0 4 2 N 0,2
21.09.2018 20:00:00 14,0 13,0 2 1 11 6 N -
21.09.2018 19:00:00 15,0 13,7 2 1 13 7 NE 1,0
21.09.2018 18:00:00 18,4 11,0 4 2 28 15 W 0,0
21.09.2018 17:00:00 22,3 9,1 5 3 28 15 SW 0,0
21.09.2018 16:00:00 23,2 8,8 4 2 15 8 SSW 0,0
21.09.2018 15:00:00 21,5 10,0 2 1 18 10 SSE 0,0
21.09.2018 14:00:00 22,9 7,8 4 2 21 11 SW -
21.09.2018 13:00:00 25,4 8,4 5 3 22 12 S 0,0
21.09.2018 12:00:00 20,1 11,3 0 0 8 4 N 0,0
21.09.2018 11:00:00 13,6 13,3 0 0 5 3 N 0,0
21.09.2018 10:00:00 10,5 10,3 4 2 5 3 ESE 0,2
21.09.2018 09:00:00 9,1 9,0 2 1 5 3 NE 0,0
21.09.2018 08:00:00 7,9 7,6 0 0 4 2 N -
21.09.2018 07:00:00 8,0 7,6 2 1 8 4 NNE 0,0
21.09.2018 06:00:00 8,4 8,0 0 0 5 3 N 0,0
21.09.2018 05:00:00 9,0 8,5 0 0 5 3 N 0,0
21.09.2018 04:00:00 9,7 9,2 0 0 4 2 N 0,0
21.09.2018 03:00:00 9,5 9,0 0 0 4 2 N 0,0
21.09.2018 02:00:00 9,6 9,0 0 0 4 2 N -
21.09.2018 01:00:00 10,2 9,4 0 0 4 2 N 0,0
21.09.2018 00:00:00 10,9 10,0 0 0 4 2 N 0,0
20.09.2018 23:00:00 11,5 10,1 0 0 4 2 N 0,0
20.09.2018 22:00:00 12,5 10,7 0 0 4 2 N 0,0
20.09.2018 21:00:00 13,8 11,1 0 0 4 2 N 0,0
20.09.2018 20:00:00 15,9 12,1 0 0 4 2 N -
20.09.2018 19:00:00 19,7 11,2 0 0 13 7 N 0,0
20.09.2018 18:00:00 26,1 10,7 4 2 21 11 SW 0,0
20.09.2018 17:00:00 27,1 9,9 8 4 21 11 S 0,0
20.09.2018 16:00:00 27,0 9,8 8 4 22 12 WSW 0,0
20.09.2018 15:00:00 27,1 8,5 8 4 16 9 SSW 0,0
20.09.2018 14:00:00 25,7 8,7 5 3 13 7 WSW -
20.09.2018 13:00:00 24,4 9,2 2 1 9 5 S 0,0
20.09.2018 12:00:00 18,5 9,0 2 1 8 4 ESE 0,0
20.09.2018 11:00:00 12,6 12,4 2 1 4 2 SE 0,0
20.09.2018 10:00:00 8,3 8,2 0 0 5 3 N 0,0
20.09.2018 09:00:00 7,6 7,3 0 0 2 1 N 0,0
20.09.2018 08:00:00 7,0 6,7 0 0 4 2 N -
20.09.2018 07:00:00 7,2 6,9 0 0 4 2 N 0,0
20.09.2018 06:00:00 7,4 7,1 0 0 4 2 N 0,0
20.09.2018 05:00:00 7,9 7,5 0 0 4 2 N 0,0
20.09.2018 04:00:00 8,2 7,8 0 0 4 2 N 0,0
20.09.2018 03:00:00 8,6 8,2 0 0 4 2 N 0,0
20.09.2018 02:00:00 9,1 8,5 0 0 5 3 N -
20.09.2018 01:00:00 9,6 8,8 0 0 5 3 N 0,0
20.09.2018 00:00:00 10,3 9,4 0 0 4 2 N 0,0
19.09.2018 23:00:00 11,0 9,7 0 0 4 2 N 0,0

tt = temperature
td = dewpoint
ff = wind speed
fx = gusts
dd = wind direction
rr = precipitation

Next stations